createdAt,value
2022-09-28T00:01:17.547Z,9.35
2022-09-28T00:04:20.401Z,9.32
2022-09-28T00:07:22.057Z,9.36
2022-09-28T00:10:23.900Z,9.45
2022-09-28T00:13:25.645Z,9.37
2022-09-28T00:16:33.194Z,9.41
2022-09-28T00:19:34.990Z,9.38
2022-09-28T00:22:37.421Z,9.47
2022-09-28T00:25:39.115Z,9.38
2022-09-28T00:28:40.774Z,9.42
2022-09-28T00:31:44.022Z,9.44
2022-09-28T00:34:45.969Z,9.45
2022-09-28T00:37:48.897Z,9.56
2022-09-28T00:40:50.723Z,9.55
2022-09-28T00:43:52.801Z,9.49
2022-09-28T00:47:00.700Z,9.45
2022-09-28T00:50:06.759Z,9.48
2022-09-28T00:53:13.364Z,9.51
2022-09-28T00:56:19.135Z,9.53
2022-09-28T00:59:24.322Z,9.46
2022-09-28T01:02:27.518Z,9.56
2022-09-28T01:05:30.192Z,9.54
2022-09-28T01:08:34.348Z,9.61
2022-09-28T01:11:38.458Z,9.56
2022-09-28T01:14:43.299Z,9.64
2022-09-28T01:17:59.735Z,9.61
2022-09-28T01:21:16.614Z,9.61
2022-09-28T01:24:41.986Z,9.67
2022-09-28T01:27:51.109Z,9.69
2022-09-28T01:31:03.667Z,9.68
2022-09-28T01:34:13.557Z,9.66
2022-09-28T01:37:18.485Z,9.70
2022-09-28T01:40:21.819Z,9.76
2022-09-28T01:43:26.535Z,9.82
2022-09-28T01:46:34.239Z,9.78
2022-09-28T01:49:42.174Z,9.75
2022-09-28T01:53:23.798Z,9.78
2022-09-28T01:56:30.518Z,9.85
2022-09-28T01:59:36.555Z,9.82
2022-09-28T02:02:42.342Z,9.82
2022-09-28T02:05:49.474Z,9.83
2022-09-28T02:08:54.349Z,9.84
2022-09-28T02:12:05.706Z,9.88
2022-09-28T02:15:14.794Z,9.92
2022-09-28T02:18:17.354Z,9.88
2022-09-28T02:21:26.242Z,9.87
2022-09-28T02:24:35.291Z,9.93
2022-09-28T02:27:42.895Z,9.92
2022-09-28T02:30:46.362Z,9.88
2022-09-28T02:33:51.197Z,9.92
2022-09-28T02:36:53.481Z,9.89
2022-09-28T02:39:55.382Z,9.93
2022-09-28T02:43:04.470Z,10.01
2022-09-28T02:46:15.569Z,9.99
2022-09-28T02:49:30.119Z,9.95
2022-09-28T02:52:54.459Z,9.97
2022-09-28T02:56:13.868Z,9.93
2022-09-28T02:59:27.915Z,10.01
2022-09-28T03:02:37.823Z,9.93
2022-09-28T03:05:47.032Z,9.98
2022-09-28T03:08:56.113Z,10.05
2022-09-28T03:12:06.577Z,10.05
2022-09-28T03:15:14.151Z,9.92
2022-09-28T03:18:18.493Z,9.99
2022-09-28T03:21:20.366Z,10.01
2022-09-28T03:24:22.195Z,10.00
2022-09-28T03:27:23.942Z,9.96
2022-09-28T03:30:25.951Z,9.93
2022-09-28T03:33:29.002Z,9.97
2022-09-28T03:36:30.729Z,9.96
2022-09-28T03:39:32.674Z,10.03
2022-09-28T03:42:36.637Z,9.99
2022-09-28T03:45:38.516Z,9.97
2022-09-28T03:48:41.766Z,10.03
2022-09-28T03:51:45.272Z,10.12
2022-09-28T03:54:49.244Z,10.04
2022-09-28T03:57:57.251Z,10.04
2022-09-28T04:01:03.265Z,10.08
2022-09-28T04:04:06.448Z,9.94
2022-09-28T04:07:08.217Z,9.86
2022-09-28T04:10:10.019Z,9.89
2022-09-28T04:13:12.097Z,9.86
2022-09-28T04:16:16.162Z,9.75
2022-09-28T04:19:25.309Z,9.79
2022-09-28T04:22:37.624Z,9.77
2022-09-28T04:25:39.636Z,9.73
2022-09-28T04:29:05.450Z,9.72
2022-09-28T04:32:09.281Z,9.72
2022-09-28T04:35:14.928Z,9.71
2022-09-28T04:38:26.806Z,9.71
2022-09-28T04:41:37.695Z,9.73
2022-09-28T04:44:39.442Z,9.68
2022-09-28T04:47:43.812Z,9.68
2022-09-28T04:51:07.025Z,9.63
2022-09-28T04:54:08.738Z,9.63
2022-09-28T04:57:10.475Z,9.64
2022-09-28T05:00:14.322Z,9.65
2022-09-28T05:03:25.350Z,9.67
2022-09-28T05:06:51.293Z,9.63
2022-09-28T05:09:55.069Z,9.69
2022-09-28T05:12:56.775Z,9.65
2022-09-28T05:16:04.417Z,9.50
2022-09-28T05:19:10.536Z,9.58
2022-09-28T05:22:14.797Z,9.67
2022-09-28T05:25:20.263Z,9.57
2022-09-28T05:28:37.073Z,9.65
2022-09-28T05:31:57.290Z,9.55
2022-09-28T05:35:18.877Z,9.62
2022-09-28T05:38:23.668Z,9.68
2022-09-28T05:41:25.486Z,9.60
2022-09-28T05:44:27.153Z,9.72
2022-09-28T05:47:30.157Z,9.60
2022-09-28T05:50:31.960Z,9.66
2022-09-28T05:53:35.024Z,9.72
2022-09-28T05:56:36.774Z,9.61
2022-09-28T05:59:40.980Z,9.63
2022-09-28T06:02:42.717Z,9.59
2022-09-28T06:05:47.431Z,9.56
2022-09-28T06:08:50.708Z,9.50
2022-09-28T06:12:16.072Z,9.51
2022-09-28T06:15:21.135Z,9.59
2022-09-28T06:18:22.879Z,9.52
2022-09-28T06:21:39.693Z,9.47
2022-09-28T06:24:43.449Z,9.29
2022-09-28T06:27:54.301Z,9.30
2022-09-28T06:30:55.992Z,9.18
2022-09-28T06:33:57.827Z,9.26
2022-09-28T06:36:59.597Z,9.28
2022-09-28T06:40:04.962Z,9.24
2022-09-28T06:43:14.698Z,9.08
2022-09-28T06:46:38.069Z,9.07
2022-09-28T06:50:02.993Z,8.89
2022-09-28T06:53:24.905Z,8.95
2022-09-28T06:56:44.940Z,9.01
2022-09-28T06:59:46.625Z,9.10
2022-09-28T07:02:48.289Z,9.04
2022-09-28T07:06:11.398Z,9.12
2022-09-28T07:09:29.642Z,8.99
2022-09-28T07:12:55.198Z,9.05
2022-09-28T07:16:01.887Z,9.03
2022-09-28T07:19:03.701Z,9.02
2022-09-28T07:22:05.799Z,9.17
2022-09-28T07:25:09.182Z,9.42
2022-09-28T07:28:34.043Z,9.53
2022-09-28T07:31:54.166Z,9.61
2022-09-28T07:35:07.993Z,9.75
2022-09-28T07:38:20.441Z,9.92
2022-09-28T07:41:32.433Z,10.04
2022-09-28T07:44:38.850Z,10.28
2022-09-28T07:47:40.595Z,10.40
2022-09-28T07:50:52.165Z,10.41
2022-09-28T07:54:13.561Z,10.49
2022-09-28T07:57:33.131Z,10.61
2022-09-28T08:01:01.118Z,10.64
2022-09-28T08:04:03.241Z,10.79
2022-09-28T08:07:09.313Z,10.80
2022-09-28T08:10:11.434Z,10.93
2022-09-28T08:13:37.679Z,10.72
2022-09-28T08:16:54.681Z,10.57
2022-09-28T08:20:26.428Z,10.78
2022-09-28T08:23:28.333Z,10.73
2022-09-28T08:26:30.082Z,10.93
2022-09-28T08:29:32.637Z,10.82
2022-09-28T08:32:55.597Z,10.90
2022-09-28T08:36:26.554Z,10.79
2022-09-28T08:39:37.429Z,10.98
2022-09-28T08:43:41.367Z,11.13
2022-09-28T08:47:36.378Z,11.17
2022-09-28T08:51:18.962Z,11.22
2022-09-28T08:54:48.748Z,11.20
2022-09-28T08:58:05.160Z,11.13
2022-09-28T09:01:16.745Z,11.28
2022-09-28T09:04:19.884Z,11.39
2022-09-28T09:07:45.718Z,11.31
2022-09-28T09:10:52.273Z,11.57
2022-09-28T09:14:30.850Z,11.44
2022-09-28T09:17:44.814Z,11.23
2022-09-28T09:21:13.795Z,11.43
2022-09-28T09:24:27.133Z,11.44
2022-09-28T09:27:45.696Z,11.58
2022-09-28T09:30:57.571Z,11.37
2022-09-28T09:34:18.255Z,11.47
2022-09-28T09:37:37.466Z,11.54
2022-09-28T09:41:16.475Z,11.48
2022-09-28T09:44:54.741Z,11.56
2022-09-28T09:48:21.356Z,11.69
2022-09-28T09:51:37.231Z,11.83
2022-09-28T09:54:44.428Z,12.28
2022-09-28T09:58:00.762Z,12.31
2022-09-28T10:01:13.569Z,12.46
2022-09-28T10:04:50.037Z,12.42
2022-09-28T10:08:02.930Z,12.63
2022-09-28T10:11:09.733Z,12.37
2022-09-28T10:14:19.931Z,11.91
2022-09-28T10:17:27.613Z,11.74
2022-09-28T10:20:48.981Z,11.89
2022-09-28T10:23:59.613Z,12.29
2022-09-28T10:27:07.564Z,12.55
2022-09-28T10:30:18.307Z,12.77
2022-09-28T10:33:29.221Z,12.91
2022-09-28T10:36:38.519Z,12.87
2022-09-28T10:39:49.414Z,13.08
2022-09-28T10:42:59.153Z,12.98
2022-09-28T10:46:06.596Z,13.51
2022-09-28T10:49:16.794Z,13.56
2022-09-28T10:52:38.782Z,13.49
2022-09-28T10:55:40.704Z,13.39
2022-09-28T10:58:44.220Z,13.08
2022-09-28T11:01:59.479Z,13.51
2022-09-28T11:05:03.744Z,13.59
2022-09-28T11:08:25.090Z,13.48
2022-09-28T11:11:29.136Z,13.21
2022-09-28T11:14:42.373Z,13.05
2022-09-28T11:17:51.257Z,13.14
2022-09-28T11:21:11.154Z,13.20
2022-09-28T11:24:20.636Z,12.79
2022-09-28T11:27:25.459Z,12.69
2022-09-28T11:30:31.140Z,12.70
2022-09-28T11:34:31.052Z,12.63
2022-09-28T11:37:53.540Z,12.58
2022-09-28T11:41:38.434Z,12.66
2022-09-28T11:44:46.267Z,12.73
2022-09-28T11:47:57.512Z,12.84
2022-09-28T11:51:04.299Z,12.68
2022-09-28T11:54:14.664Z,12.61
2022-09-28T11:57:22.177Z,12.67
2022-09-28T12:00:25.032Z,12.71
2022-09-28T12:03:40.992Z,12.91
2022-09-28T12:06:49.622Z,12.91
2022-09-28T12:09:55.650Z,12.99
2022-09-28T12:13:02.923Z,12.96
2022-09-28T12:16:32.762Z,13.16
2022-09-28T12:19:41.136Z,13.28
2022-09-28T12:22:46.944Z,13.21
2022-09-28T12:25:55.054Z,13.25
2022-09-28T12:29:01.824Z,13.41
2022-09-28T12:32:12.690Z,13.39
2022-09-28T12:35:18.136Z,13.44
2022-09-28T12:38:35.714Z,14.05
2022-09-28T12:41:50.007Z,13.81
2022-09-28T12:45:13.733Z,13.73
2022-09-28T12:48:36.097Z,13.83
2022-09-28T12:51:47.284Z,14.14
2022-09-28T12:55:04.719Z,14.92
2022-09-28T12:58:22.562Z,14.56
2022-09-28T13:01:59.442Z,14.85
2022-09-28T13:05:19.504Z,14.47
2022-09-28T13:08:30.945Z,13.95
2022-09-28T13:11:43.790Z,13.83
2022-09-28T13:15:11.089Z,13.57
2022-09-28T13:18:21.713Z,13.50
2022-09-28T13:21:32.446Z,13.67
2022-09-28T13:24:37.593Z,13.62
2022-09-28T13:27:46.116Z,13.99
2022-09-28T13:30:50.277Z,13.92
2022-09-28T13:33:53.227Z,14.12
2022-09-28T13:37:21.523Z,13.86
2022-09-28T13:41:06.666Z,13.62
2022-09-28T13:44:27.484Z,13.79
2022-09-28T13:47:51.703Z,13.80
2022-09-28T13:51:31.791Z,13.95
2022-09-28T13:54:50.738Z,13.92
2022-09-28T13:57:56.911Z,13.83
2022-09-28T14:01:07.199Z,13.81
2022-09-28T14:04:16.575Z,13.58
2022-09-28T14:07:23.740Z,13.51
2022-09-28T14:10:49.726Z,13.51
2022-09-28T14:14:23.228Z,13.48
2022-09-28T14:17:57.574Z,13.57
2022-09-28T14:21:19.631Z,13.50
2022-09-28T14:24:34.602Z,13.51
2022-09-28T14:27:48.765Z,13.55
2022-09-28T14:30:53.559Z,13.69
2022-09-28T14:33:58.853Z,13.70
2022-09-28T14:37:21.824Z,13.62
2022-09-28T14:40:49.379Z,13.89
2022-09-28T14:44:00.790Z,13.79
2022-09-28T14:47:33.825Z,13.94
2022-09-28T14:50:36.974Z,13.91
2022-09-28T14:53:38.827Z,13.96
2022-09-28T14:56:45.065Z,14.21
2022-09-28T14:59:47.723Z,14.35
2022-09-28T15:02:52.605Z,14.30
2022-09-28T15:05:55.683Z,14.16
2022-09-28T15:08:57.387Z,13.96
2022-09-28T15:12:00.767Z,13.93
2022-09-28T15:15:04.576Z,13.80
2022-09-28T15:18:27.525Z,13.84
2022-09-28T15:21:35.596Z,13.94
2022-09-28T15:24:38.318Z,13.75
2022-09-28T15:27:41.319Z,13.83
2022-09-28T15:30:43.825Z,13.90
2022-09-28T15:34:04.062Z,13.87
2022-09-28T15:37:11.841Z,13.77
2022-09-28T15:40:17.286Z,13.65
2022-09-28T15:43:26.826Z,13.43
2022-09-28T15:46:35.008Z,13.19
2022-09-28T15:49:43.645Z,13.19
2022-09-28T15:52:54.033Z,12.98
2022-09-28T15:56:03.498Z,13.09
2022-09-28T15:59:10.582Z,13.33
2022-09-28T16:02:16.501Z,13.51
2022-09-28T16:05:35.869Z,13.68
2022-09-28T16:08:41.991Z,13.44
2022-09-28T16:11:43.919Z,13.23
2022-09-28T16:14:48.444Z,13.01
2022-09-28T16:17:52.415Z,12.83
2022-09-28T16:20:56.183Z,12.55
2022-09-28T16:23:59.531Z,12.34
2022-09-28T16:27:03.666Z,12.23
2022-09-28T16:30:24.262Z,12.03
2022-09-28T16:33:29.318Z,11.83
2022-09-28T16:36:42.615Z,11.96
2022-09-28T16:39:45.646Z,11.79
2022-09-28T16:42:49.312Z,11.66
2022-09-28T16:45:51.337Z,11.58
2022-09-28T16:48:55.239Z,11.62
2022-09-28T16:51:57.114Z,11.62
2022-09-28T16:55:36.156Z,11.42
2022-09-28T16:58:39.085Z,11.23
2022-09-28T17:01:44.014Z,11.16
2022-09-28T17:04:47.795Z,11.19
2022-09-28T17:07:59.123Z,11.21
2022-09-28T17:11:15.507Z,10.90
2022-09-28T17:14:18.515Z,10.76
2022-09-28T17:17:21.171Z,10.69
2022-09-28T17:20:29.421Z,10.54
2022-09-28T17:23:31.105Z,10.45
2022-09-28T17:26:35.917Z,10.34
2022-09-28T17:29:37.554Z,10.13
2022-09-28T17:32:44.733Z,9.94
2022-09-28T17:35:46.737Z,9.97
2022-09-28T17:38:49.511Z,9.91
2022-09-28T17:41:53.042Z,9.77
2022-09-28T17:44:54.657Z,9.96
2022-09-28T17:47:56.371Z,9.88
2022-09-28T17:50:59.811Z,9.59
2022-09-28T17:54:02.049Z,9.64
2022-09-28T17:57:05.133Z,9.48
2022-09-28T18:00:07.973Z,9.31
2022-09-28T18:03:14.464Z,9.41
2022-09-28T18:06:19.735Z,9.35
2022-09-28T18:09:25.249Z,9.23
2022-09-28T18:12:28.448Z,9.29
2022-09-28T18:15:30.149Z,9.43
2022-09-28T18:18:39.815Z,9.52
2022-09-28T18:21:41.440Z,9.58
2022-09-28T18:24:43.179Z,9.61
2022-09-28T18:27:46.239Z,9.83
2022-09-28T18:30:47.915Z,9.85
2022-09-28T18:33:49.645Z,10.00
2022-09-28T18:36:51.452Z,10.08
2022-09-28T18:39:53.290Z,9.80
2022-09-28T18:42:56.553Z,9.74
2022-09-28T18:45:58.489Z,9.80
2022-09-28T18:49:00.168Z,9.84
2022-09-28T18:52:01.993Z,9.91
2022-09-28T18:55:05.568Z,10.01
2022-09-28T18:58:10.037Z,9.85
2022-09-28T19:01:29.568Z,9.83
2022-09-28T19:04:32.347Z,9.83
2022-09-28T19:07:34.621Z,9.84
2022-09-28T19:10:36.522Z,9.85
2022-09-28T19:13:39.982Z,10.09
2022-09-28T19:16:42.780Z,10.27
2022-09-28T19:19:44.972Z,10.21
2022-09-28T19:22:50.290Z,10.14
2022-09-28T19:25:51.965Z,10.24
2022-09-28T19:28:55.637Z,10.29
2022-09-28T19:31:57.946Z,10.36
2022-09-28T19:34:59.732Z,10.54
2022-09-28T19:38:01.490Z,10.60
2022-09-28T19:41:08.593Z,10.71
2022-09-28T19:44:16.722Z,10.56
2022-09-28T19:47:21.604Z,10.44
2022-09-28T19:50:23.996Z,10.22
2022-09-28T19:53:27.653Z,10.19
2022-09-28T19:56:32.024Z,10.24
2022-09-28T19:59:35.598Z,10.44
2022-09-28T20:02:37.393Z,10.50
2022-09-28T20:05:41.332Z,10.47
2022-09-28T20:08:44.192Z,10.47
2022-09-28T20:11:46.793Z,10.61
2022-09-28T20:14:49.810Z,10.78
2022-09-28T20:17:51.452Z,10.67
2022-09-28T20:21:01.361Z,10.68
2022-09-28T20:24:04.740Z,10.56
2022-09-28T20:27:07.175Z,10.63
2022-09-28T20:30:11.818Z,10.38
2022-09-28T20:33:19.085Z,10.39
2022-09-28T20:36:31.941Z,10.59
2022-09-28T20:39:34.452Z,10.61
2022-09-28T20:42:36.128Z,10.46
2022-09-28T20:45:39.111Z,10.36
2022-09-28T20:48:41.018Z,10.27
2022-09-28T20:51:42.727Z,10.23
2022-09-28T20:54:44.549Z,10.11
2022-09-28T20:57:46.216Z,10.05
2022-09-28T21:00:49.270Z,10.09
2022-09-28T21:03:52.578Z,10.03
2022-09-28T21:06:54.254Z,10.09
2022-09-28T21:09:55.925Z,10.29
2022-09-28T21:12:57.674Z,10.23
2022-09-28T21:16:03.486Z,10.33
2022-09-28T21:19:05.165Z,10.51
2022-09-28T21:22:07.550Z,10.68
2022-09-28T21:25:09.526Z,10.77
2022-09-28T21:28:11.651Z,10.75
2022-09-28T21:31:14.844Z,10.78
2022-09-28T21:34:19.413Z,10.80
2022-09-28T21:37:21.173Z,10.83
2022-09-28T21:40:23.116Z,10.78
2022-09-28T21:43:25.948Z,10.75
2022-09-28T21:46:33.954Z,10.64
2022-09-28T21:49:35.773Z,10.66
2022-09-28T21:52:37.378Z,10.65
2022-09-28T21:55:39.077Z,10.64
2022-09-28T21:58:41.020Z,10.72
2022-09-28T22:01:44.297Z,10.67
2022-09-28T22:04:46.040Z,10.49
2022-09-28T22:07:47.734Z,10.51
2022-09-28T22:11:00.454Z,10.50
2022-09-28T22:14:02.157Z,10.42
2022-09-28T22:17:05.192Z,10.46
2022-09-28T22:20:07.298Z,10.47
2022-09-28T22:23:08.992Z,10.42
2022-09-28T22:26:12.871Z,10.44
2022-09-28T22:29:14.556Z,10.39
2022-09-28T22:32:17.605Z,10.23
2022-09-28T22:35:19.349Z,10.26
2022-09-28T22:38:22.627Z,10.17
2022-09-28T22:41:24.892Z,10.18
2022-09-28T22:44:26.609Z,10.24
2022-09-28T22:47:29.886Z,10.10
2022-09-28T22:50:31.827Z,10.01
2022-09-28T22:53:34.449Z,9.80
2022-09-28T22:56:36.117Z,9.83
2022-09-28T22:59:37.766Z,9.85
2022-09-28T23:02:40.951Z,9.72
2022-09-28T23:05:51.709Z,9.73
2022-09-28T23:08:53.477Z,9.67
2022-09-28T23:11:55.227Z,9.53
2022-09-28T23:14:56.933Z,9.60
2022-09-28T23:17:59.900Z,9.76
2022-09-28T23:21:04.322Z,9.61
2022-09-28T23:24:06.148Z,9.56
2022-09-28T23:27:07.878Z,9.40
2022-09-28T23:30:10.291Z,9.38
2022-09-28T23:33:14.208Z,9.52
2022-09-28T23:36:16.359Z,9.55
2022-09-28T23:39:18.298Z,9.66
2022-09-28T23:42:20.114Z,9.56
2022-09-28T23:45:21.792Z,9.52
2022-09-28T23:48:24.758Z,9.55
2022-09-28T23:51:26.526Z,9.51
2022-09-28T23:54:28.148Z,9.48
2022-09-28T23:57:29.794Z,9.52
